sensor_id;sensor_type;location;lat;lon;timestamp;P1;durP1;ratioP1;P2;durP2;ratioP2
60314;SDS011;46159;42.550;21.904;2022-10-31T00:00:31;18.55;;;10.52;;
60314;SDS011;46159;42.550;21.904;2022-10-31T00:02:57;18.48;;;11.40;;
60314;SDS011;46159;42.550;21.904;2022-10-31T00:05:23;22.35;;;15.40;;
60314;SDS011;46159;42.550;21.904;2022-10-31T00:07:51;21.90;;;13.63;;
60314;SDS011;46159;42.550;21.904;2022-10-31T00:10:18;23.30;;;14.18;;
60314;SDS011;46159;42.550;21.904;2022-10-31T00:12:44;26.20;;;16.63;;
60314;SDS011;46159;42.550;21.904;2022-10-31T00:15:10;39.38;;;30.42;;
60314;SDS011;46159;42.550;21.904;2022-10-31T00:17:36;63.00;;;52.35;;
60314;SDS011;46159;42.550;21.904;2022-10-31T00:20:02;50.00;;;42.90;;
60314;SDS011;46159;42.550;21.904;2022-10-31T00:22:29;55.13;;;48.92;;
60314;SDS011;46159;42.550;21.904;2022-10-31T00:24:59;56.33;;;46.38;;
60314;SDS011;46159;42.550;21.904;2022-10-31T00:27:25;83.55;;;62.25;;
60314;SDS011;46159;42.550;21.904;2022-10-31T00:29:52;91.28;;;71.13;;
60314;SDS011;46159;42.550;21.904;2022-10-31T00:32:18;107.97;;;80.90;;
60314;SDS011;46159;42.550;21.904;2022-10-31T00:34:45;95.15;;;73.30;;
60314;SDS011;46159;42.550;21.904;2022-10-31T00:37:11;105.57;;;78.28;;
60314;SDS011;46159;42.550;21.904;2022-10-31T00:39:37;108.60;;;77.05;;
60314;SDS011;46159;42.550;21.904;2022-10-31T00:42:03;101.32;;;77.82;;
60314;SDS011;46159;42.550;21.904;2022-10-31T00:44:29;87.07;;;68.28;;
60314;SDS011;46159;42.550;21.904;2022-10-31T00:46:55;86.47;;;64.88;;
60314;SDS011;46159;42.550;21.904;2022-10-31T00:49:23;75.35;;;59.45;;
60314;SDS011;46159;42.550;21.904;2022-10-31T00:51:50;61.22;;;52.63;;
60314;SDS011;46159;42.550;21.904;2022-10-31T00:54:16;61.83;;;49.28;;
60314;SDS011;46159;42.550;21.904;2022-10-31T00:56:43;57.25;;;45.88;;
60314;SDS011;46159;42.550;21.904;2022-10-31T00:59:09;48.47;;;38.47;;
60314;SDS011;46159;42.550;21.904;2022-10-31T01:01:35;35.38;;;27.77;;
60314;SDS011;46159;42.550;21.904;2022-10-31T01:04:01;38.63;;;31.17;;
60314;SDS011;46159;42.550;21.904;2022-10-31T01:06:27;33.83;;;28.60;;
60314;SDS011;46159;42.550;21.904;2022-10-31T01:08:55;32.03;;;24.42;;
60314;SDS011;46159;42.550;21.904;2022-10-31T01:11:22;32.25;;;25.15;;
60314;SDS011;46159;42.550;21.904;2022-10-31T01:13:52;29.95;;;23.42;;
60314;SDS011;46159;42.550;21.904;2022-10-31T01:16:20;29.23;;;22.45;;
60314;SDS011;46159;42.550;21.904;2022-10-31T01:18:47;27.25;;;20.70;;
60314;SDS011;46159;42.550;21.904;2022-10-31T01:21:17;30.55;;;22.73;;
60314;SDS011;46159;42.550;21.904;2022-10-31T01:23:43;32.35;;;22.48;;
60314;SDS011;46159;42.550;21.904;2022-10-31T01:28:45;27.33;;;21.98;;
60314;SDS011;46159;42.550;21.904;2022-10-31T01:31:12;33.45;;;23.17;;
60314;SDS011;46159;42.550;21.904;2022-10-31T01:33:39;35.38;;;24.98;;
60314;SDS011;46159;42.550;21.904;2022-10-31T01:36:16;33.33;;;23.77;;
60314;SDS011;46159;42.550;21.904;2022-10-31T01:38:44;32.72;;;22.80;;
60314;SDS011;46159;42.550;21.904;2022-10-31T01:41:11;30.65;;;23.15;;
60314;SDS011;46159;42.550;21.904;2022-10-31T01:43:42;32.13;;;22.95;;
60314;SDS011;46159;42.550;21.904;2022-10-31T01:46:09;31.60;;;22.25;;
60314;SDS011;46159;42.550;21.904;2022-10-31T01:48:36;31.98;;;22.98;;
60314;SDS011;46159;42.550;21.904;2022-10-31T01:51:02;30.63;;;23.27;;
60314;SDS011;46159;42.550;21.904;2022-10-31T01:53:31;32.15;;;22.90;;
60314;SDS011;46159;42.550;21.904;2022-10-31T01:55:57;34.45;;;24.75;;
60314;SDS011;46159;42.550;21.904;2022-10-31T01:58:25;35.30;;;25.13;;
60314;SDS011;46159;42.550;21.904;2022-10-31T02:00:56;34.83;;;25.98;;
60314;SDS011;46159;42.550;21.904;2022-10-31T02:03:23;33.22;;;26.58;;
60314;SDS011;46159;42.550;21.904;2022-10-31T02:05:49;33.63;;;25.25;;
60314;SDS011;46159;42.550;21.904;2022-10-31T02:08:20;36.65;;;26.25;;
60314;SDS011;46159;42.550;21.904;2022-10-31T02:10:49;36.78;;;25.48;;
60314;SDS011;46159;42.550;21.904;2022-10-31T02:13:15;40.33;;;26.00;;
60314;SDS011;46159;42.550;21.904;2022-10-31T02:15:42;37.00;;;24.98;;
60314;SDS011;46159;42.550;21.904;2022-10-31T02:18:10;36.88;;;26.40;;
60314;SDS011;46159;42.550;21.904;2022-10-31T02:29:26;31.90;;;23.55;;
60314;SDS011;46159;42.550;21.904;2022-10-31T02:33:51;35.33;;;25.58;;
60314;SDS011;46159;42.550;21.904;2022-10-31T02:36:28;35.28;;;26.60;;
60314;SDS011;46159;42.550;21.904;2022-10-31T02:41:52;32.58;;;23.27;;
60314;SDS011;46159;42.550;21.904;2022-10-31T02:47:08;30.98;;;22.15;;
60314;SDS011;46159;42.550;21.904;2022-10-31T02:49:45;29.15;;;21.63;;
60314;SDS011;46159;42.550;21.904;2022-10-31T02:52:23;29.05;;;21.00;;
60314;SDS011;46159;42.550;21.904;2022-10-31T02:54:50;28.98;;;20.30;;
60314;SDS011;46159;42.550;21.904;2022-10-31T02:57:17;30.17;;;19.95;;
60314;SDS011;46159;42.550;21.904;2022-10-31T02:59:48;30.00;;;21.25;;
60314;SDS011;46159;42.550;21.904;2022-10-31T03:07:21;27.90;;;19.97;;
60314;SDS011;46159;42.550;21.904;2022-10-31T03:15:06;30.40;;;21.48;;
60314;SDS011;46159;42.550;21.904;2022-10-31T03:17:45;31.75;;;20.65;;
60314;SDS011;46159;42.550;21.904;2022-10-31T03:20:13;31.33;;;20.33;;
60314;SDS011;46159;42.550;21.904;2022-10-31T03:22:40;27.00;;;20.00;;
60314;SDS011;46159;42.550;21.904;2022-10-31T03:25:08;31.10;;;20.15;;
60314;SDS011;46159;42.550;21.904;2022-10-31T03:27:35;31.45;;;19.88;;
60314;SDS011;46159;42.550;21.904;2022-10-31T03:30:03;29.50;;;20.45;;
60314;SDS011;46159;42.550;21.904;2022-10-31T03:32:41;27.10;;;20.48;;
60314;SDS011;46159;42.550;21.904;2022-10-31T03:35:09;29.17;;;20.65;;
60314;SDS011;46159;42.550;21.904;2022-10-31T03:37:36;30.77;;;20.88;;
60314;SDS011;46159;42.550;21.904;2022-10-31T03:40:03;29.30;;;20.73;;
60314;SDS011;46159;42.550;21.904;2022-10-31T03:42:31;25.92;;;17.92;;
60314;SDS011;46159;42.550;21.904;2022-10-31T03:44:59;31.83;;;17.77;;
60314;SDS011;46159;42.550;21.904;2022-10-31T03:47:27;22.33;;;16.23;;
60314;SDS011;46159;42.550;21.904;2022-10-31T03:49:53;26.83;;;18.00;;
60314;SDS011;46159;42.550;21.904;2022-10-31T04:00:14;30.80;;;19.23;;
60314;SDS011;46159;42.550;21.904;2022-10-31T04:02:42;26.27;;;18.17;;
60314;SDS011;46159;42.550;21.904;2022-10-31T04:05:09;25.92;;;17.77;;
60314;SDS011;46159;42.550;21.904;2022-10-31T04:07:41;28.58;;;19.08;;
60314;SDS011;46159;42.550;21.904;2022-10-31T04:10:09;26.20;;;18.42;;
60314;SDS011;46159;42.550;21.904;2022-10-31T04:12:35;39.50;;;27.23;;
60314;SDS011;46159;42.550;21.904;2022-10-31T04:15:03;22.58;;;12.52;;
60314;SDS011;46159;42.550;21.904;2022-10-31T04:17:31;29.45;;;19.38;;
60314;SDS011;46159;42.550;21.904;2022-10-31T04:19:59;25.25;;;17.85;;
60314;SDS011;46159;42.550;21.904;2022-10-31T04:22:28;25.63;;;17.42;;
60314;SDS011;46159;42.550;21.904;2022-10-31T04:24:54;29.05;;;21.92;;
60314;SDS011;46159;42.550;21.904;2022-10-31T04:27:20;32.67;;;21.27;;
60314;SDS011;46159;42.550;21.904;2022-10-31T04:29:46;33.53;;;23.30;;
60314;SDS011;46159;42.550;21.904;2022-10-31T04:32:12;34.53;;;24.38;;
60314;SDS011;46159;42.550;21.904;2022-10-31T04:34:39;44.88;;;28.90;;
60314;SDS011;46159;42.550;21.904;2022-10-31T04:37:05;36.42;;;26.35;;
60314;SDS011;46159;42.550;21.904;2022-10-31T04:39:31;45.03;;;29.02;;
60314;SDS011;46159;42.550;21.904;2022-10-31T04:41:58;42.00;;;28.50;;
60314;SDS011;46159;42.550;21.904;2022-10-31T04:44:24;43.70;;;27.83;;
60314;SDS011;46159;42.550;21.904;2022-10-31T04:46:50;41.70;;;27.65;;
60314;SDS011;46159;42.550;21.904;2022-10-31T04:49:16;42.40;;;27.17;;
60314;SDS011;46159;42.550;21.904;2022-10-31T04:51:44;48.38;;;29.15;;
60314;SDS011;46159;42.550;21.904;2022-10-31T04:54:10;41.50;;;27.55;;
60314;SDS011;46159;42.550;21.904;2022-10-31T04:56:36;42.88;;;27.77;;
60314;SDS011;46159;42.550;21.904;2022-10-31T04:59:03;48.38;;;28.10;;
60314;SDS011;46159;42.550;21.904;2022-10-31T05:01:29;49.35;;;29.25;;
60314;SDS011;46159;42.550;21.904;2022-10-31T05:03:55;50.63;;;33.85;;
60314;SDS011;46159;42.550;21.904;2022-10-31T05:06:21;46.55;;;31.23;;
60314;SDS011;46159;42.550;21.904;2022-10-31T05:08:47;45.28;;;29.45;;
60314;SDS011;46159;42.550;21.904;2022-10-31T05:11:13;44.20;;;29.15;;
60314;SDS011;46159;42.550;21.904;2022-10-31T05:13:39;47.25;;;28.10;;
60314;SDS011;46159;42.550;21.904;2022-10-31T05:16:06;42.30;;;29.90;;
60314;SDS011;46159;42.550;21.904;2022-10-31T05:18:32;48.22;;;29.98;;
60314;SDS011;46159;42.550;21.904;2022-10-31T05:20:58;51.28;;;29.70;;
60314;SDS011;46159;42.550;21.904;2022-10-31T05:23:24;50.85;;;30.02;;
60314;SDS011;46159;42.550;21.904;2022-10-31T05:25:50;45.13;;;29.48;;
60314;SDS011;46159;42.550;21.904;2022-10-31T05:28:16;44.47;;;29.17;;
60314;SDS011;46159;42.550;21.904;2022-10-31T05:30:42;46.53;;;29.80;;
60314;SDS011;46159;42.550;21.904;2022-10-31T05:33:09;42.65;;;29.50;;
60314;SDS011;46159;42.550;21.904;2022-10-31T05:35:35;55.20;;;29.55;;
60314;SDS011;46159;42.550;21.904;2022-10-31T05:38:01;47.80;;;30.00;;
60314;SDS011;46159;42.550;21.904;2022-10-31T05:40:29;41.75;;;27.30;;
60314;SDS011;46159;42.550;21.904;2022-10-31T05:42:56;51.83;;;30.83;;
60314;SDS011;46159;42.550;21.904;2022-10-31T05:45:25;42.38;;;29.42;;
60314;SDS011;46159;42.550;21.904;2022-10-31T05:47:55;41.10;;;28.15;;
60314;SDS011;46159;42.550;21.904;2022-10-31T05:50:22;46.25;;;28.48;;
60314;SDS011;46159;42.550;21.904;2022-10-31T05:53:09;46.60;;;28.75;;
60314;SDS011;46159;42.550;21.904;2022-10-31T05:55:35;42.38;;;28.95;;
60314;SDS011;46159;42.550;21.904;2022-10-31T05:58:01;39.05;;;27.35;;
60314;SDS011;46159;42.550;21.904;2022-10-31T06:00:27;40.00;;;26.88;;
60314;SDS011;46159;42.550;21.904;2022-10-31T06:02:57;50.28;;;33.90;;
60314;SDS011;46159;42.550;21.904;2022-10-31T06:05:24;50.20;;;35.10;;
60314;SDS011;46159;42.550;21.904;2022-10-31T06:07:52;48.42;;;34.97;;
60314;SDS011;46159;42.550;21.904;2022-10-31T06:10:18;56.13;;;31.52;;
60314;SDS011;46159;42.550;21.904;2022-10-31T06:12:46;68.82;;;44.70;;
60314;SDS011;46159;42.550;21.904;2022-10-31T06:15:12;62.75;;;43.15;;
60314;SDS011;46159;42.550;21.904;2022-10-31T06:17:39;51.40;;;37.88;;
60314;SDS011;46159;42.550;21.904;2022-10-31T06:20:05;58.10;;;38.30;;
60314;SDS011;46159;42.550;21.904;2022-10-31T06:22:32;50.47;;;39.15;;
60314;SDS011;46159;42.550;21.904;2022-10-31T06:24:59;52.20;;;40.10;;
60314;SDS011;46159;42.550;21.904;2022-10-31T06:27:25;68.15;;;47.00;;
60314;SDS011;46159;42.550;21.904;2022-10-31T06:29:54;84.68;;;63.97;;
60314;SDS011;46159;42.550;21.904;2022-10-31T06:32:22;52.47;;;40.42;;
60314;SDS011;46159;42.550;21.904;2022-10-31T06:34:49;59.03;;;40.15;;
60314;SDS011;46159;42.550;21.904;2022-10-31T06:37:15;57.75;;;42.33;;
60314;SDS011;46159;42.550;21.904;2022-10-31T06:39:41;57.88;;;42.78;;
60314;SDS011;46159;42.550;21.904;2022-10-31T06:42:07;55.88;;;40.08;;
60314;SDS011;46159;42.550;21.904;2022-10-31T06:44:35;51.55;;;40.80;;
60314;SDS011;46159;42.550;21.904;2022-10-31T06:47:01;54.05;;;43.78;;
60314;SDS011;46159;42.550;21.904;2022-10-31T06:49:31;56.55;;;45.80;;
60314;SDS011;46159;42.550;21.904;2022-10-31T06:51:58;46.83;;;33.03;;
60314;SDS011;46159;42.550;21.904;2022-10-31T06:54:24;50.80;;;34.70;;
60314;SDS011;46159;42.550;21.904;2022-10-31T06:56:50;54.28;;;38.00;;
60314;SDS011;46159;42.550;21.904;2022-10-31T06:59:17;49.38;;;36.70;;
60314;SDS011;46159;42.550;21.904;2022-10-31T07:01:43;56.88;;;40.47;;
60314;SDS011;46159;42.550;21.904;2022-10-31T07:04:12;62.25;;;45.25;;
60314;SDS011;46159;42.550;21.904;2022-10-31T07:06:38;61.38;;;43.35;;
60314;SDS011;46159;42.550;21.904;2022-10-31T07:09:05;66.32;;;46.15;;
60314;SDS011;46159;42.550;21.904;2022-10-31T07:11:31;62.85;;;45.55;;
60314;SDS011;46159;42.550;21.904;2022-10-31T07:13:57;54.75;;;42.45;;
60314;SDS011;46159;42.550;21.904;2022-10-31T07:16:24;64.80;;;43.05;;
60314;SDS011;46159;42.550;21.904;2022-10-31T07:18:50;67.65;;;48.38;;
60314;SDS011;46159;42.550;21.904;2022-10-31T07:21:17;67.57;;;47.30;;
60314;SDS011;46159;42.550;21.904;2022-10-31T07:23:43;58.40;;;40.97;;
60314;SDS011;46159;42.550;21.904;2022-10-31T07:26:10;58.97;;;43.22;;
60314;SDS011;46159;42.550;21.904;2022-10-31T07:28:37;59.17;;;43.38;;
60314;SDS011;46159;42.550;21.904;2022-10-31T07:31:05;52.88;;;38.60;;
60314;SDS011;46159;42.550;21.904;2022-10-31T07:33:31;49.33;;;35.35;;
60314;SDS011;46159;42.550;21.904;2022-10-31T07:35:57;53.25;;;38.45;;
60314;SDS011;46159;42.550;21.904;2022-10-31T07:38:24;52.22;;;39.75;;
60314;SDS011;46159;42.550;21.904;2022-10-31T07:40:51;56.10;;;36.78;;
60314;SDS011;46159;42.550;21.904;2022-10-31T07:43:19;45.25;;;35.25;;
60314;SDS011;46159;42.550;21.904;2022-10-31T07:45:52;48.38;;;34.53;;
60314;SDS011;46159;42.550;21.904;2022-10-31T07:48:19;47.20;;;34.78;;
60314;SDS011;46159;42.550;21.904;2022-10-31T07:50:45;48.70;;;34.20;;
60314;SDS011;46159;42.550;21.904;2022-10-31T07:53:13;41.60;;;31.13;;
60314;SDS011;46159;42.550;21.904;2022-10-31T07:55:41;45.05;;;34.13;;
60314;SDS011;46159;42.550;21.904;2022-10-31T07:58:10;41.97;;;32.13;;
60314;SDS011;46159;42.550;21.904;2022-10-31T08:00:38;45.15;;;32.58;;
60314;SDS011;46159;42.550;21.904;2022-10-31T08:03:05;43.75;;;30.35;;
60314;SDS011;46159;42.550;21.904;2022-10-31T08:05:32;38.05;;;28.45;;
60314;SDS011;46159;42.550;21.904;2022-10-31T08:11:04;35.75;;;24.67;;
60314;SDS011;46159;42.550;21.904;2022-10-31T08:13:31;34.88;;;22.92;;
60314;SDS011;46159;42.550;21.904;2022-10-31T08:15:58;36.08;;;22.88;;
60314;SDS011;46159;42.550;21.904;2022-10-31T08:18:33;41.38;;;27.58;;
60314;SDS011;46159;42.550;21.904;2022-10-31T08:21:00;43.05;;;26.95;;
60314;SDS011;46159;42.550;21.904;2022-10-31T08:26:27;36.90;;;29.60;;
60314;SDS011;46159;42.550;21.904;2022-10-31T08:35:00;29.88;;;22.52;;
60314;SDS011;46159;42.550;21.904;2022-10-31T08:40:14;32.03;;;21.70;;
60314;SDS011;46159;42.550;21.904;2022-10-31T08:42:40;27.60;;;19.45;;
60314;SDS011;46159;42.550;21.904;2022-10-31T08:48:12;27.55;;;19.23;;
60314;SDS011;46159;42.550;21.904;2022-10-31T08:50:44;23.25;;;12.82;;
60314;SDS011;46159;42.550;21.904;2022-10-31T08:53:14;25.30;;;14.40;;
60314;SDS011;46159;42.550;21.904;2022-10-31T08:58:47;26.60;;;16.75;;
60314;SDS011;46159;42.550;21.904;2022-10-31T09:01:52;28.08;;;20.55;;
60314;SDS011;46159;42.550;21.904;2022-10-31T09:04:18;18.02;;;11.35;;
60314;SDS011;46159;42.550;21.904;2022-10-31T09:06:45;18.38;;;10.93;;
60314;SDS011;46159;42.550;21.904;2022-10-31T09:09:11;20.63;;;11.35;;
60314;SDS011;46159;42.550;21.904;2022-10-31T09:14:41;19.85;;;12.05;;
60314;SDS011;46159;42.550;21.904;2022-10-31T09:20:10;14.85;;;9.77;;
60314;SDS011;46159;42.550;21.904;2022-10-31T09:22:37;19.27;;;9.60;;
60314;SDS011;46159;42.550;21.904;2022-10-31T09:25:03;15.75;;;9.77;;
60314;SDS011;46159;42.550;21.904;2022-10-31T09:27:30;16.20;;;8.60;;
60314;SDS011;46159;42.550;21.904;2022-10-31T09:36:03;12.75;;;7.82;;
60314;SDS011;46159;42.550;21.904;2022-10-31T09:44:19;15.30;;;8.65;;
60314;SDS011;46159;42.550;21.904;2022-10-31T09:57:49;16.40;;;7.97;;
60314;SDS011;46159;42.550;21.904;2022-10-31T10:00:18;11.75;;;7.28;;
60314;SDS011;46159;42.550;21.904;2022-10-31T10:02:53;11.50;;;7.07;;
60314;SDS011;46159;42.550;21.904;2022-10-31T10:08:44;14.88;;;7.72;;
60314;SDS011;46159;42.550;21.904;2022-10-31T10:24:39;15.65;;;7.65;;
60314;SDS011;46159;42.550;21.904;2022-10-31T10:40:57;15.38;;;6.88;;
60314;SDS011;46159;42.550;21.904;2022-10-31T10:43:33;12.43;;;6.60;;
60314;SDS011;46159;42.550;21.904;2022-10-31T10:54:33;16.20;;;8.32;;
60314;SDS011;46159;42.550;21.904;2022-10-31T10:57:10;13.05;;;7.57;;
60314;SDS011;46159;42.550;21.904;2022-10-31T10:59:56;12.85;;;6.82;;
60314;SDS011;46159;42.550;21.904;2022-10-31T11:05:30;17.08;;;6.82;;
60314;SDS011;46159;42.550;21.904;2022-10-31T11:08:03;14.48;;;6.80;;
60314;SDS011;46159;42.550;21.904;2022-10-31T11:13:36;13.20;;;6.32;;
60314;SDS011;46159;42.550;21.904;2022-10-31T11:18:52;11.52;;;5.90;;
60314;SDS011;46159;42.550;21.904;2022-10-31T11:21:23;11.43;;;6.05;;
60314;SDS011;46159;42.550;21.904;2022-10-31T11:24:01;13.88;;;6.50;;
60314;SDS011;46159;42.550;21.904;2022-10-31T11:26:28;12.90;;;5.75;;
60314;SDS011;46159;42.550;21.904;2022-10-31T11:31:58;17.60;;;7.00;;
60314;SDS011;46159;42.550;21.904;2022-10-31T11:34:30;13.07;;;6.50;;
60314;SDS011;46159;42.550;21.904;2022-10-31T11:40:05;10.48;;;6.32;;
60314;SDS011;46159;42.550;21.904;2022-10-31T11:42:39;14.35;;;7.05;;
60314;SDS011;46159;42.550;21.904;2022-10-31T11:45:29;11.93;;;6.10;;
60314;SDS011;46159;42.550;21.904;2022-10-31T11:48:00;12.53;;;6.70;;
60314;SDS011;46159;42.550;21.904;2022-10-31T11:50:40;22.20;;;14.55;;
60314;SDS011;46159;42.550;21.904;2022-10-31T11:53:15;17.02;;;5.97;;
60314;SDS011;46159;42.550;21.904;2022-10-31T11:55:42;18.48;;;6.10;;
60314;SDS011;46159;42.550;21.904;2022-10-31T11:58:22;22.50;;;3.83;;
60314;SDS011;46159;42.550;21.904;2022-10-31T12:00:49;10.68;;;3.00;;
60314;SDS011;46159;42.550;21.904;2022-10-31T12:08:29;14.00;;;3.00;;
60314;SDS011;46159;42.550;21.904;2022-10-31T12:13:37;11.20;;;3.28;;
60314;SDS011;46159;42.550;21.904;2022-10-31T12:26:48;12.82;;;4.55;;
60314;SDS011;46159;42.550;21.904;2022-10-31T12:37:32;20.55;;;4.00;;
60314;SDS011;46159;42.550;21.904;2022-10-31T12:58:31;11.70;;;3.90;;
60314;SDS011;46159;42.550;21.904;2022-10-31T13:03:31;9.23;;;3.70;;
60314;SDS011;46159;42.550;21.904;2022-10-31T13:06:02;13.85;;;3.88;;
60314;SDS011;46159;42.550;21.904;2022-10-31T13:08:49;19.73;;;3.47;;
60314;SDS011;46159;42.550;21.904;2022-10-31T13:11:34;10.48;;;3.00;;
60314;SDS011;46159;42.550;21.904;2022-10-31T13:25:39;20.77;;;3.65;;
60314;SDS011;46159;42.550;21.904;2022-10-31T13:33:58;14.63;;;4.07;;
60314;SDS011;46159;42.550;21.904;2022-10-31T13:39:38;16.10;;;3.40;;
60314;SDS011;46159;42.550;21.904;2022-10-31T13:44:49;11.70;;;3.30;;
60314;SDS011;46159;42.550;21.904;2022-10-31T13:47:26;10.98;;;3.30;;
60314;SDS011;46159;42.550;21.904;2022-10-31T13:50:05;11.20;;;4.13;;
60314;SDS011;46159;42.550;21.904;2022-10-31T13:52:32;36.25;;;5.20;;
60314;SDS011;46159;42.550;21.904;2022-10-31T13:54:58;11.40;;;4.53;;
60314;SDS011;46159;42.550;21.904;2022-10-31T14:00:28;9.80;;;3.95;;
60314;SDS011;46159;42.550;21.904;2022-10-31T14:02:59;9.48;;;3.60;;
60314;SDS011;46159;42.550;21.904;2022-10-31T14:05:33;9.38;;;3.00;;
60314;SDS011;46159;42.550;21.904;2022-10-31T14:08:04;11.20;;;4.38;;
60314;SDS011;46159;42.550;21.904;2022-10-31T14:10:32;12.82;;;3.83;;
60314;SDS011;46159;42.550;21.904;2022-10-31T14:13:07;14.60;;;5.50;;
60314;SDS011;46159;42.550;21.904;2022-10-31T14:18:58;17.88;;;3.97;;
60314;SDS011;46159;42.550;21.904;2022-10-31T14:21:27;10.05;;;3.67;;
60314;SDS011;46159;42.550;21.904;2022-10-31T14:23:57;13.00;;;3.83;;
60314;SDS011;46159;42.550;21.904;2022-10-31T14:28:55;10.07;;;3.15;;
60314;SDS011;46159;42.550;21.904;2022-10-31T14:40:19;11.85;;;4.38;;
60314;SDS011;46159;42.550;21.904;2022-10-31T14:42:56;11.75;;;4.13;;
60314;SDS011;46159;42.550;21.904;2022-10-31T14:48:38;14.48;;;5.20;;
60314;SDS011;46159;42.550;21.904;2022-10-31T14:51:16;18.75;;;5.00;;
60314;SDS011;46159;42.550;21.904;2022-10-31T14:53:56;12.95;;;4.65;;
60314;SDS011;46159;42.550;21.904;2022-10-31T14:56:29;16.55;;;4.97;;
60314;SDS011;46159;42.550;21.904;2022-10-31T15:02:00;14.45;;;6.45;;
60314;SDS011;46159;42.550;21.904;2022-10-31T15:04:29;12.05;;;4.68;;
60314;SDS011;46159;42.550;21.904;2022-10-31T15:07:16;16.23;;;6.40;;
60314;SDS011;46159;42.550;21.904;2022-10-31T15:10:15;15.00;;;6.38;;
60314;SDS011;46159;42.550;21.904;2022-10-31T15:12:45;15.68;;;6.63;;
60314;SDS011;46159;42.550;21.904;2022-10-31T15:15:13;19.92;;;7.53;;
60314;SDS011;46159;42.550;21.904;2022-10-31T15:17:45;13.13;;;5.35;;
60314;SDS011;46159;42.550;21.904;2022-10-31T15:20:18;13.18;;;5.57;;
60314;SDS011;46159;42.550;21.904;2022-10-31T15:22:48;11.80;;;4.28;;
60314;SDS011;46159;42.550;21.904;2022-10-31T15:25:18;16.15;;;5.32;;
60314;SDS011;46159;42.550;21.904;2022-10-31T15:28:13;12.43;;;6.57;;
60314;SDS011;46159;42.550;21.904;2022-10-31T15:30:48;13.25;;;6.07;;
60314;SDS011;46159;42.550;21.904;2022-10-31T15:33:25;12.45;;;6.40;;
60314;SDS011;46159;42.550;21.904;2022-10-31T15:38:56;16.75;;;6.25;;
60314;SDS011;46159;42.550;21.904;2022-10-31T15:41:34;13.27;;;5.45;;
60314;SDS011;46159;42.550;21.904;2022-10-31T15:44:03;17.23;;;6.78;;
60314;SDS011;46159;42.550;21.904;2022-10-31T15:53:17;13.85;;;6.43;;
60314;SDS011;46159;42.550;21.904;2022-10-31T15:56:05;9.85;;;3.95;;
60314;SDS011;46159;42.550;21.904;2022-10-31T15:58:46;10.02;;;4.22;;
60314;SDS011;46159;42.550;21.904;2022-10-31T16:01:30;10.45;;;4.20;;
60314;SDS011;46159;42.550;21.904;2022-10-31T16:04:04;14.40;;;4.25;;
60314;SDS011;46159;42.550;21.904;2022-10-31T16:06:34;25.20;;;8.93;;
60314;SDS011;46159;42.550;21.904;2022-10-31T16:09:00;15.73;;;9.02;;
60314;SDS011;46159;42.550;21.904;2022-10-31T16:11:36;18.45;;;8.73;;
60314;SDS011;46159;42.550;21.904;2022-10-31T16:14:21;26.45;;;14.35;;
60314;SDS011;46159;42.550;21.904;2022-10-31T16:16:50;31.20;;;15.32;;
60314;SDS011;46159;42.550;21.904;2022-10-31T16:20:17;32.53;;;16.27;;
60314;SDS011;46159;42.550;21.904;2022-10-31T16:22:31;33.05;;;15.77;;
60314;SDS011;46159;42.550;21.904;2022-10-31T16:27:28;27.08;;;17.90;;
60314;SDS011;46159;42.550;21.904;2022-10-31T16:29:55;38.20;;;24.45;;
60314;SDS011;46159;42.550;21.904;2022-10-31T16:35:51;37.65;;;25.30;;
60314;SDS011;46159;42.550;21.904;2022-10-31T16:37:47;40.10;;;24.43;;
60314;SDS011;46159;42.550;21.904;2022-10-31T16:40:14;75.13;;;57.28;;
60314;SDS011;46159;42.550;21.904;2022-10-31T16:42:41;33.65;;;22.35;;
60314;SDS011;46159;42.550;21.904;2022-10-31T16:45:07;37.05;;;24.70;;
60314;SDS011;46159;42.550;21.904;2022-10-31T16:48:20;80.18;;;57.00;;
60314;SDS011;46159;42.550;21.904;2022-10-31T16:50:46;73.95;;;52.75;;
60314;SDS011;46159;42.550;21.904;2022-10-31T16:53:13;78.68;;;51.42;;
60314;SDS011;46159;42.550;21.904;2022-10-31T16:56:41;95.28;;;59.47;;
60314;SDS011;46159;42.550;21.904;2022-10-31T16:58:54;95.07;;;64.25;;
60314;SDS011;46159;42.550;21.904;2022-10-31T17:01:21;90.07;;;59.78;;
60314;SDS011;46159;42.550;21.904;2022-10-31T17:03:47;61.38;;;47.53;;
60314;SDS011;46159;42.550;21.904;2022-10-31T17:09:17;91.03;;;64.15;;
60314;SDS011;46159;42.550;21.904;2022-10-31T17:11:45;120.50;;;83.25;;
60314;SDS011;46159;42.550;21.904;2022-10-31T17:17:07;81.95;;;52.65;;
60314;SDS011;46159;42.550;21.904;2022-10-31T17:19:33;74.10;;;42.00;;
60314;SDS011;46159;42.550;21.904;2022-10-31T17:25:03;68.18;;;42.17;;
60314;SDS011;46159;42.550;21.904;2022-10-31T17:27:29;56.58;;;35.15;;
60314;SDS011;46159;42.550;21.904;2022-10-31T17:29:56;55.05;;;32.85;;
60314;SDS011;46159;42.550;21.904;2022-10-31T17:32:23;29.92;;;19.27;;
60314;SDS011;46159;42.550;21.904;2022-10-31T17:34:49;32.75;;;16.52;;
60314;SDS011;46159;42.550;21.904;2022-10-31T17:37:15;27.58;;;16.63;;
60314;SDS011;46159;42.550;21.904;2022-10-31T17:42:52;50.90;;;33.10;;
60314;SDS011;46159;42.550;21.904;2022-10-31T17:45:19;27.98;;;15.38;;
60314;SDS011;46159;42.550;21.904;2022-10-31T17:50:46;32.08;;;15.43;;
60314;SDS011;46159;42.550;21.904;2022-10-31T17:53:13;23.40;;;12.75;;
60314;SDS011;46159;42.550;21.904;2022-10-31T17:55:40;20.33;;;10.23;;
60314;SDS011;46159;42.550;21.904;2022-10-31T17:58:06;22.65;;;13.20;;
60314;SDS011;46159;42.550;21.904;2022-10-31T18:00:36;33.65;;;19.45;;
60314;SDS011;46159;42.550;21.904;2022-10-31T18:03:03;35.10;;;20.83;;
60314;SDS011;46159;42.550;21.904;2022-10-31T18:05:29;32.00;;;17.25;;
60314;SDS011;46159;42.550;21.904;2022-10-31T18:07:55;40.80;;;22.55;;
60314;SDS011;46159;42.550;21.904;2022-10-31T18:10:21;45.50;;;29.95;;
60314;SDS011;46159;42.550;21.904;2022-10-31T18:12:48;59.95;;;38.83;;
60314;SDS011;46159;42.550;21.904;2022-10-31T18:15:14;55.72;;;34.42;;
60314;SDS011;46159;42.550;21.904;2022-10-31T18:20:45;74.68;;;44.38;;
60314;SDS011;46159;42.550;21.904;2022-10-31T18:23:11;99.15;;;47.58;;
60314;SDS011;46159;42.550;21.904;2022-10-31T18:31:58;64.18;;;41.92;;
60314;SDS011;46159;42.550;21.904;2022-10-31T18:40:32;50.22;;;29.48;;
60314;SDS011;46159;42.550;21.904;2022-10-31T18:45:51;37.22;;;22.58;;
60314;SDS011;46159;42.550;21.904;2022-10-31T18:48:17;31.85;;;19.08;;
60314;SDS011;46159;42.550;21.904;2022-10-31T18:50:43;28.90;;;16.67;;
60314;SDS011;46159;42.550;21.904;2022-10-31T18:56:13;33.63;;;17.45;;
60314;SDS011;46159;42.550;21.904;2022-10-31T19:01:42;23.50;;;12.32;;
60314;SDS011;46159;42.550;21.904;2022-10-31T19:04:08;19.83;;;11.93;;
60314;SDS011;46159;42.550;21.904;2022-10-31T19:06:36;19.73;;;11.05;;
60314;SDS011;46159;42.550;21.904;2022-10-31T19:11:56;22.08;;;12.23;;
60314;SDS011;46159;42.550;21.904;2022-10-31T19:17:26;19.23;;;9.93;;
60314;SDS011;46159;42.550;21.904;2022-10-31T19:19:53;25.85;;;12.88;;